sensor_id;sensor_type;location;lat;lon;timestamp;temperature;humidity
30889;DHT22;51092;50.874;7.024;2023-01-05T00:00:36;12.30;99.90
30889;DHT22;51092;50.874;7.024;2023-01-05T00:01:39;12.30;99.90
30889;DHT22;51092;50.874;7.024;2023-01-05T00:02:41;12.20;99.90
30889;DHT22;51092;50.874;7.024;2023-01-05T00:03:43;12.20;99.90
30889;DHT22;51092;50.874;7.024;2023-01-05T00:04:45;12.20;99.90
30889;DHT22;51092;50.874;7.024;2023-01-05T00:05:48;12.20;99.90
30889;DHT22;51092;50.874;7.024;2023-01-05T00:06:50;12.20;99.90
30889;DHT22;51092;50.874;7.024;2023-01-05T00:07:52;12.20;99.90
30889;DHT22;51092;50.874;7.024;2023-01-05T00:08:54;12.20;99.90
30889;DHT22;51092;50.874;7.024;2023-01-05T00:09:56;12.20;99.90
30889;DHT22;51092;50.874;7.024;2023-01-05T00:11:02;12.20;99.90
30889;DHT22;51092;50.874;7.024;2023-01-05T00:12:23;12.20;99.90
30889;DHT22;51092;50.874;7.024;2023-01-05T00:13:42;12.20;99.90
30889;DHT22;51092;50.874;7.024;2023-01-05T00:15:03;12.20;99.90
30889;DHT22;51092;50.874;7.024;2023-01-05T00:16:23;12.10;99.90
30889;DHT22;51092;50.874;7.024;2023-01-05T00:17:44;12.20;99.90
30889;DHT22;51092;50.874;7.024;2023-01-05T00:19:04;12.20;99.90
30889;DHT22;51092;50.874;7.024;2023-01-05T00:20:24;12.20;99.90
30889;DHT22;51092;50.874;7.024;2023-01-05T00:21:44;12.20;99.90
30889;DHT22;51092;50.874;7.024;2023-01-05T00:23:05;12.20;99.90
30889;DHT22;51092;50.874;7.024;2023-01-05T00:24:07;12.20;99.90
30889;DHT22;51092;50.874;7.024;2023-01-05T00:25:11;12.20;99.90
30889;DHT22;51092;50.874;7.024;2023-01-05T00:26:13;12.10;99.90
30889;DHT22;51092;50.874;7.024;2023-01-05T00:27:15;12.20;99.90
30889;DHT22;51092;50.874;7.024;2023-01-05T00:28:17;12.20;99.90
30889;DHT22;51092;50.874;7.024;2023-01-05T00:29:20;12.20;99.90
30889;DHT22;51092;50.874;7.024;2023-01-05T00:30:23;12.20;99.90
30889;DHT22;51092;50.874;7.024;2023-01-05T00:31:26;12.20;99.90
30889;DHT22;51092;50.874;7.024;2023-01-05T00:32:28;12.10;99.90
30889;DHT22;51092;50.874;7.024;2023-01-05T00:33:32;12.10;99.90
30889;DHT22;51092;50.874;7.024;2023-01-05T00:34:34;12.10;99.90
30889;DHT22;51092;50.874;7.024;2023-01-05T00:35:36;12.10;99.90
30889;DHT22;51092;50.874;7.024;2023-01-05T00:36:39;12.10;99.90
30889;DHT22;51092;50.874;7.024;2023-01-05T00:37:41;12.10;99.90
30889;DHT22;51092;50.874;7.024;2023-01-05T00:38:43;12.10;99.90
30889;DHT22;51092;50.874;7.024;2023-01-05T00:39:45;12.10;99.90
30889;DHT22;51092;50.874;7.024;2023-01-05T00:40:48;12.10;99.90
30889;DHT22;51092;50.874;7.024;2023-01-05T00:41:51;12.10;99.90
30889;DHT22;51092;50.874;7.024;2023-01-05T00:42:52;12.20;99.90
30889;DHT22;51092;50.874;7.024;2023-01-05T00:43:55;12.20;99.90
30889;DHT22;51092;50.874;7.024;2023-01-05T00:44:56;12.20;99.90
30889;DHT22;51092;50.874;7.024;2023-01-05T00:45:59;12.20;99.90
30889;DHT22;51092;50.874;7.024;2023-01-05T00:47:01;12.20;99.90
30889;DHT22;51092;50.874;7.024;2023-01-05T00:48:03;12.20;99.90
30889;DHT22;51092;50.874;7.024;2023-01-05T00:49:07;12.20;99.90
30889;DHT22;51092;50.874;7.024;2023-01-05T00:50:11;12.10;99.90
30889;DHT22;51092;50.874;7.024;2023-01-05T00:51:14;12.10;99.90
30889;DHT22;51092;50.874;7.024;2023-01-05T00:52:16;12.10;99.90
30889;DHT22;51092;50.874;7.024;2023-01-05T00:53:18;12.10;99.90
30889;DHT22;51092;50.874;7.024;2023-01-05T00:54:20;12.10;99.90
30889;DHT22;51092;50.874;7.024;2023-01-05T00:55:22;12.10;99.90
30889;DHT22;51092;50.874;7.024;2023-01-05T00:56:24;12.10;99.90
30889;DHT22;51092;50.874;7.024;2023-01-05T00:57:26;12.00;99.90
30889;DHT22;51092;50.874;7.024;2023-01-05T00:58:29;12.00;99.90
30889;DHT22;51092;50.874;7.024;2023-01-05T00:59:30;12.00;99.90
30889;DHT22;51092;50.874;7.024;2023-01-05T01:00:33;12.00;99.90
30889;DHT22;51092;50.874;7.024;2023-01-05T01:01:34;12.00;99.90
30889;DHT22;51092;50.874;7.024;2023-01-05T01:02:36;12.00;99.90
30889;DHT22;51092;50.874;7.024;2023-01-05T01:03:38;12.00;99.90
30889;DHT22;51092;50.874;7.024;2023-01-05T01:04:42;12.00;99.90
30889;DHT22;51092;50.874;7.024;2023-01-05T01:05:43;12.00;99.90
30889;DHT22;51092;50.874;7.024;2023-01-05T01:06:46;12.00;99.90
30889;DHT22;51092;50.874;7.024;2023-01-05T01:07:48;12.00;99.90
30889;DHT22;51092;50.874;7.024;2023-01-05T01:08:51;12.00;99.90
30889;DHT22;51092;50.874;7.024;2023-01-05T01:09:53;12.00;99.90
30889;DHT22;51092;50.874;7.024;2023-01-05T01:10:55;12.00;99.90
30889;DHT22;51092;50.874;7.024;2023-01-05T01:11:59;11.90;99.90
30889;DHT22;51092;50.874;7.024;2023-01-05T01:13:02;12.00;99.90
30889;DHT22;51092;50.874;7.024;2023-01-05T01:14:04;12.00;99.90
30889;DHT22;51092;50.874;7.024;2023-01-05T01:15:08;11.90;99.90
30889;DHT22;51092;50.874;7.024;2023-01-05T01:16:13;11.90;99.90
30889;DHT22;51092;50.874;7.024;2023-01-05T01:17:15;11.90;99.90
30889;DHT22;51092;50.874;7.024;2023-01-05T01:18:18;11.90;99.90
30889;DHT22;51092;50.874;7.024;2023-01-05T01:19:22;12.00;99.90
30889;DHT22;51092;50.874;7.024;2023-01-05T01:20:26;11.90;99.90
30889;DHT22;51092;50.874;7.024;2023-01-05T01:21:28;12.00;99.90
30889;DHT22;51092;50.874;7.024;2023-01-05T01:22:30;12.00;99.90
30889;DHT22;51092;50.874;7.024;2023-01-05T01:23:32;12.00;99.90
30889;DHT22;51092;50.874;7.024;2023-01-05T01:24:35;12.00;99.90
30889;DHT22;51092;50.874;7.024;2023-01-05T01:25:37;12.00;99.90
30889;DHT22;51092;50.874;7.024;2023-01-05T01:26:40;12.00;99.90
30889;DHT22;51092;50.874;7.024;2023-01-05T01:27:42;12.00;99.90
30889;DHT22;51092;50.874;7.024;2023-01-05T01:28:46;12.00;99.90
30889;DHT22;51092;50.874;7.024;2023-01-05T01:29:47;11.90;99.90
30889;DHT22;51092;50.874;7.024;2023-01-05T01:30:50;11.90;99.90
30889;DHT22;51092;50.874;7.024;2023-01-05T01:31:52;12.00;99.90
30889;DHT22;51092;50.874;7.024;2023-01-05T01:32:55;12.00;99.90
30889;DHT22;51092;50.874;7.024;2023-01-05T01:33:56;11.90;99.90
30889;DHT22;51092;50.874;7.024;2023-01-05T01:34:59;11.90;99.90
30889;DHT22;51092;50.874;7.024;2023-01-05T01:36:05;11.90;99.90
30889;DHT22;51092;50.874;7.024;2023-01-05T01:37:07;11.90;99.90
30889;DHT22;51092;50.874;7.024;2023-01-05T01:38:09;12.00;99.90
30889;DHT22;51092;50.874;7.024;2023-01-05T01:39:11;12.00;99.90
30889;DHT22;51092;50.874;7.024;2023-01-05T01:40:14;12.00;99.90
30889;DHT22;51092;50.874;7.024;2023-01-05T01:41:15;12.00;99.90
30889;DHT22;51092;50.874;7.024;2023-01-05T01:42:20;12.00;99.90
30889;DHT22;51092;50.874;7.024;2023-01-05T01:43:41;11.90;99.90
30889;DHT22;51092;50.874;7.024;2023-01-05T01:44:55;12.00;99.90
30889;DHT22;51092;50.874;7.024;2023-01-05T01:45:58;12.00;99.90
30889;DHT22;51092;50.874;7.024;2023-01-05T01:46:59;11.90;99.90
30889;DHT22;51092;50.874;7.024;2023-01-05T01:48:02;11.90;99.90
30889;DHT22;51092;50.874;7.024;2023-01-05T01:49:06;11.90;99.90
30889;DHT22;51092;50.874;7.024;2023-01-05T01:50:15;11.90;99.90
30889;DHT22;51092;50.874;7.024;2023-01-05T01:51:23;11.90;99.90
30889;DHT22;51092;50.874;7.024;2023-01-05T01:52:28;11.90;99.90
30889;DHT22;51092;50.874;7.024;2023-01-05T01:53:35;11.90;99.90
30889;DHT22;51092;50.874;7.024;2023-01-05T01:54:38;11.90;99.90
30889;DHT22;51092;50.874;7.024;2023-01-05T01:55:40;12.00;99.90
30889;DHT22;51092;50.874;7.024;2023-01-05T01:56:46;11.90;99.90
30889;DHT22;51092;50.874;7.024;2023-01-05T01:57:50;11.90;99.90
30889;DHT22;51092;50.874;7.024;2023-01-05T01:58:53;11.90;99.90
30889;DHT22;51092;50.874;7.024;2023-01-05T01:59:57;11.90;99.90
30889;DHT22;51092;50.874;7.024;2023-01-05T02:01:01;11.90;99.90
30889;DHT22;51092;50.874;7.024;2023-01-05T02:02:03;11.90;99.90
30889;DHT22;51092;50.874;7.024;2023-01-05T02:03:07;11.90;99.90
30889;DHT22;51092;50.874;7.024;2023-01-05T02:04:09;11.90;99.90
30889;DHT22;51092;50.874;7.024;2023-01-05T02:05:14;11.90;99.90
30889;DHT22;51092;50.874;7.024;2023-01-05T02:06:16;11.90;99.90
30889;DHT22;51092;50.874;7.024;2023-01-05T02:07:23;11.90;99.90
30889;DHT22;51092;50.874;7.024;2023-01-05T02:08:25;11.90;99.90
30889;DHT22;51092;50.874;7.024;2023-01-05T02:09:31;12.00;99.90
30889;DHT22;51092;50.874;7.024;2023-01-05T02:10:48;11.90;99.90
30889;DHT22;51092;50.874;7.024;2023-01-05T02:12:02;11.80;99.90
30889;DHT22;51092;50.874;7.024;2023-01-05T02:13:17;11.80;99.90
30889;DHT22;51092;50.874;7.024;2023-01-05T02:14:28;11.80;99.90
30889;DHT22;51092;50.874;7.024;2023-01-05T02:15:35;11.90;99.90
30889;DHT22;51092;50.874;7.024;2023-01-05T02:16:51;11.90;99.90
30889;DHT22;51092;50.874;7.024;2023-01-05T02:18:12;11.90;99.90
30889;DHT22;51092;50.874;7.024;2023-01-05T02:19:50;11.90;99.90
30889;DHT22;51092;50.874;7.024;2023-01-05T02:21:08;11.90;99.90
30889;DHT22;51092;50.874;7.024;2023-01-05T02:22:32;11.90;99.90
30889;DHT22;51092;50.874;7.024;2023-01-05T02:24:09;11.90;99.90
30889;DHT22;51092;50.874;7.024;2023-01-05T02:25:34;11.90;99.90
30889;DHT22;51092;50.874;7.024;2023-01-05T02:28:42;11.90;99.90
30889;DHT22;51092;50.874;7.024;2023-01-05T02:31:17;11.90;99.90
30889;DHT22;51092;50.874;7.024;2023-01-05T02:32:23;11.90;99.90
30889;DHT22;51092;50.874;7.024;2023-01-05T02:33:39;11.90;99.90
30889;DHT22;51092;50.874;7.024;2023-01-05T02:34:47;11.90;99.90
30889;DHT22;51092;50.874;7.024;2023-01-05T02:35:53;11.90;99.90
30889;DHT22;51092;50.874;7.024;2023-01-05T02:37:04;11.90;99.90
30889;DHT22;51092;50.874;7.024;2023-01-05T02:38:10;11.80;99.90
30889;DHT22;51092;50.874;7.024;2023-01-05T02:39:17;11.90;99.90
30889;DHT22;51092;50.874;7.024;2023-01-05T02:40:26;11.90;99.90
30889;DHT22;51092;50.874;7.024;2023-01-05T02:41:33;11.80;99.90
30889;DHT22;51092;50.874;7.024;2023-01-05T02:42:37;11.90;99.90
30889;DHT22;51092;50.874;7.024;2023-01-05T02:43:42;11.80;99.90
30889;DHT22;51092;50.874;7.024;2023-01-05T02:44:45;11.80;99.90
30889;DHT22;51092;50.874;7.024;2023-01-05T02:45:47;11.80;99.90
30889;DHT22;51092;50.874;7.024;2023-01-05T02:47:00;11.80;99.90
30889;DHT22;51092;50.874;7.024;2023-01-05T02:48:02;11.80;99.90
30889;DHT22;51092;50.874;7.024;2023-01-05T02:49:05;11.80;99.90
30889;DHT22;51092;50.874;7.024;2023-01-05T02:50:14;11.80;99.90
30889;DHT22;51092;50.874;7.024;2023-01-05T02:51:25;11.80;99.90
30889;DHT22;51092;50.874;7.024;2023-01-05T02:52:31;11.80;99.90
30889;DHT22;51092;50.874;7.024;2023-01-05T02:53:39;11.80;99.90
30889;DHT22;51092;50.874;7.024;2023-01-05T02:54:45;11.80;99.90
30889;DHT22;51092;50.874;7.024;2023-01-05T02:55:51;11.80;99.90
30889;DHT22;51092;50.874;7.024;2023-01-05T02:56:58;11.80;99.90
30889;DHT22;51092;50.874;7.024;2023-01-05T02:58:06;11.80;99.90
30889;DHT22;51092;50.874;7.024;2023-01-05T02:59:13;11.80;99.90
30889;DHT22;51092;50.874;7.024;2023-01-05T03:00:21;11.80;99.90
30889;DHT22;51092;50.874;7.024;2023-01-05T03:01:26;11.70;99.90
30889;DHT22;51092;50.874;7.024;2023-01-05T03:02:31;11.70;99.90
30889;DHT22;51092;50.874;7.024;2023-01-05T03:03:36;11.70;99.90
30889;DHT22;51092;50.874;7.024;2023-01-05T03:04:45;11.80;99.90
30889;DHT22;51092;50.874;7.024;2023-01-05T03:05:51;11.70;99.90
30889;DHT22;51092;50.874;7.024;2023-01-05T03:06:59;11.70;99.90
30889;DHT22;51092;50.874;7.024;2023-01-05T03:08:03;11.70;99.90
30889;DHT22;51092;50.874;7.024;2023-01-05T03:09:08;11.70;99.90
30889;DHT22;51092;50.874;7.024;2023-01-05T03:10:12;11.80;99.90
30889;DHT22;51092;50.874;7.024;2023-01-05T03:11:38;11.80;99.90
30889;DHT22;51092;50.874;7.024;2023-01-05T03:13:03;11.80;99.90
30889;DHT22;51092;50.874;7.024;2023-01-05T03:14:29;11.70;99.90
30889;DHT22;51092;50.874;7.024;2023-01-05T03:15:33;11.70;99.90
30889;DHT22;51092;50.874;7.024;2023-01-05T03:16:37;11.70;99.90
30889;DHT22;51092;50.874;7.024;2023-01-05T03:17:43;11.70;99.90
30889;DHT22;51092;50.874;7.024;2023-01-05T03:18:48;11.80;99.90
30889;DHT22;51092;50.874;7.024;2023-01-05T03:20:12;11.80;99.90
30889;DHT22;51092;50.874;7.024;2023-01-05T03:21:16;11.80;99.90
30889;DHT22;51092;50.874;7.024;2023-01-05T03:22:20;11.80;99.90
30889;DHT22;51092;50.874;7.024;2023-01-05T03:23:42;11.80;99.90
30889;DHT22;51092;50.874;7.024;2023-01-05T03:25:03;11.80;99.90
30889;DHT22;51092;50.874;7.024;2023-01-05T03:26:24;11.70;99.90
30889;DHT22;51092;50.874;7.024;2023-01-05T03:27:46;11.70;99.90
30889;DHT22;51092;50.874;7.024;2023-01-05T03:29:07;11.70;99.90
30889;DHT22;51092;50.874;7.024;2023-01-05T03:30:32;11.70;99.90
30889;DHT22;51092;50.874;7.024;2023-01-05T03:31:58;11.70;99.90
30889;DHT22;51092;50.874;7.024;2023-01-05T03:33:28;11.70;99.90
30889;DHT22;51092;50.874;7.024;2023-01-05T03:34:52;11.70;99.90
30889;DHT22;51092;50.874;7.024;2023-01-05T03:36:17;11.70;99.90
30889;DHT22;51092;50.874;7.024;2023-01-05T03:37:26;11.70;99.90
30889;DHT22;51092;50.874;7.024;2023-01-05T03:38:36;11.80;99.90
30889;DHT22;51092;50.874;7.024;2023-01-05T03:39:42;11.80;99.90
30889;DHT22;51092;50.874;7.024;2023-01-05T03:40:45;11.70;99.90
30889;DHT22;51092;50.874;7.024;2023-01-05T03:41:51;11.70;99.90
30889;DHT22;51092;50.874;7.024;2023-01-05T03:42:53;11.70;99.90
30889;DHT22;51092;50.874;7.024;2023-01-05T03:43:56;11.70;99.90
30889;DHT22;51092;50.874;7.024;2023-01-05T03:44:59;11.70;99.90
30889;DHT22;51092;50.874;7.024;2023-01-05T03:46:00;11.60;99.90
30889;DHT22;51092;50.874;7.024;2023-01-05T03:47:10;11.60;99.90
30889;DHT22;51092;50.874;7.024;2023-01-05T03:48:11;11.60;99.90
30889;DHT22;51092;50.874;7.024;2023-01-05T03:49:15;11.60;99.90
30889;DHT22;51092;50.874;7.024;2023-01-05T03:50:18;11.60;99.90
30889;DHT22;51092;50.874;7.024;2023-01-05T03:51:20;11.60;99.90
30889;DHT22;51092;50.874;7.024;2023-01-05T03:52:22;11.60;99.90
30889;DHT22;51092;50.874;7.024;2023-01-05T03:53:23;11.60;99.90
30889;DHT22;51092;50.874;7.024;2023-01-05T03:54:25;11.60;99.90
30889;DHT22;51092;50.874;7.024;2023-01-05T03:55:26;11.60;99.90
30889;DHT22;51092;50.874;7.024;2023-01-05T03:56:28;11.60;99.90
30889;DHT22;51092;50.874;7.024;2023-01-05T03:57:31;11.60;99.90
30889;DHT22;51092;50.874;7.024;2023-01-05T03:58:32;11.60;99.90
30889;DHT22;51092;50.874;7.024;2023-01-05T03:59:35;11.70;99.90
30889;DHT22;51092;50.874;7.024;2023-01-05T04:00:36;11.60;99.90
30889;DHT22;51092;50.874;7.024;2023-01-05T04:01:39;11.60;99.90
30889;DHT22;51092;50.874;7.024;2023-01-05T04:02:40;11.60;99.90
30889;DHT22;51092;50.874;7.024;2023-01-05T04:03:42;11.60;99.90
30889;DHT22;51092;50.874;7.024;2023-01-05T04:04:45;11.70;99.90
30889;DHT22;51092;50.874;7.024;2023-01-05T04:05:48;11.70;99.90
30889;DHT22;51092;50.874;7.024;2023-01-05T04:06:49;11.70;99.90
30889;DHT22;51092;50.874;7.024;2023-01-05T04:07:52;11.60;99.90
30889;DHT22;51092;50.874;7.024;2023-01-05T04:08:53;11.70;99.90
30889;DHT22;51092;50.874;7.024;2023-01-05T04:09:56;11.70;99.90
30889;DHT22;51092;50.874;7.024;2023-01-05T04:11:09;11.70;99.90
30889;DHT22;51092;50.874;7.024;2023-01-05T04:12:12;11.60;99.90
30889;DHT22;51092;50.874;7.024;2023-01-05T04:13:13;11.60;99.90
30889;DHT22;51092;50.874;7.024;2023-01-05T04:14:16;11.60;99.90
30889;DHT22;51092;50.874;7.024;2023-01-05T04:15:17;11.60;99.90
30889;DHT22;51092;50.874;7.024;2023-01-05T04:16:20;11.60;99.90
30889;DHT22;51092;50.874;7.024;2023-01-05T04:17:21;11.60;99.90
30889;DHT22;51092;50.874;7.024;2023-01-05T04:18:23;11.60;99.90
30889;DHT22;51092;50.874;7.024;2023-01-05T04:19:26;11.70;99.90
30889;DHT22;51092;50.874;7.024;2023-01-05T04:20:29;11.60;99.90
30889;DHT22;51092;50.874;7.024;2023-01-05T04:21:31;11.60;99.90
30889;DHT22;51092;50.874;7.024;2023-01-05T04:22:33;11.70;99.90
30889;DHT22;51092;50.874;7.024;2023-01-05T04:23:35;11.70;99.90
30889;DHT22;51092;50.874;7.024;2023-01-05T04:24:37;11.70;99.90
30889;DHT22;51092;50.874;7.024;2023-01-05T04:25:39;11.70;99.90
30889;DHT22;51092;50.874;7.024;2023-01-05T04:26:41;11.70;99.90
30889;DHT22;51092;50.874;7.024;2023-01-05T04:27:43;11.70;99.90
30889;DHT22;51092;50.874;7.024;2023-01-05T04:28:45;11.60;99.90
30889;DHT22;51092;50.874;7.024;2023-01-05T04:29:47;11.60;99.90
30889;DHT22;51092;50.874;7.024;2023-01-05T04:30:49;11.70;99.90
30889;DHT22;51092;50.874;7.024;2023-01-05T04:31:52;11.70;99.90
30889;DHT22;51092;50.874;7.024;2023-01-05T04:32:54;11.60;99.90
30889;DHT22;51092;50.874;7.024;2023-01-05T04:33:56;11.60;99.90
30889;DHT22;51092;50.874;7.024;2023-01-05T04:34:58;11.70;99.90
30889;DHT22;51092;50.874;7.024;2023-01-05T04:36:01;11.70;99.90
30889;DHT22;51092;50.874;7.024;2023-01-05T04:37:03;11.70;99.90
30889;DHT22;51092;50.874;7.024;2023-01-05T04:38:06;11.70;99.90
30889;DHT22;51092;50.874;7.024;2023-01-05T04:39:08;11.70;99.90
30889;DHT22;51092;50.874;7.024;2023-01-05T04:40:10;11.70;99.90
30889;DHT22;51092;50.874;7.024;2023-01-05T04:41:13;11.70;99.90
30889;DHT22;51092;50.874;7.024;2023-01-05T04:42:14;11.60;99.90
30889;DHT22;51092;50.874;7.024;2023-01-05T04:43:17;11.70;99.90
30889;DHT22;51092;50.874;7.024;2023-01-05T04:44:19;11.70;99.90
30889;DHT22;51092;50.874;7.024;2023-01-05T04:45:22;11.70;99.90
30889;DHT22;51092;50.874;7.024;2023-01-05T04:46:23;11.70;99.90
30889;DHT22;51092;50.874;7.024;2023-01-05T04:47:26;11.60;99.90
30889;DHT22;51092;50.874;7.024;2023-01-05T04:48:27;11.70;99.90
30889;DHT22;51092;50.874;7.024;2023-01-05T04:49:31;11.60;99.90
30889;DHT22;51092;50.874;7.024;2023-01-05T04:50:33;11.60;99.90
30889;DHT22;51092;50.874;7.024;2023-01-05T04:51:37;11.60;99.90
30889;DHT22;51092;50.874;7.024;2023-01-05T04:52:38;11.60;99.90
30889;DHT22;51092;50.874;7.024;2023-01-05T04:53:41;11.60;99.90
30889;DHT22;51092;50.874;7.024;2023-01-05T04:54:42;11.70;99.90
30889;DHT22;51092;50.874;7.024;2023-01-05T04:55:45;11.60;99.90
30889;DHT22;51092;50.874;7.024;2023-01-05T04:56:47;11.60;99.90
30889;DHT22;51092;50.874;7.024;2023-01-05T04:57:49;11.60;99.90
30889;DHT22;51092;50.874;7.024;2023-01-05T04:58:51;11.60;99.90
30889;DHT22;51092;50.874;7.024;2023-01-05T04:59:53;11.60;99.90
30889;DHT22;51092;50.874;7.024;2023-01-05T05:00:55;11.60;99.90
30889;DHT22;51092;50.874;7.024;2023-01-05T05:01:57;11.60;99.90
30889;DHT22;51092;50.874;7.024;2023-01-05T05:02:59;11.60;99.90
30889;DHT22;51092;50.874;7.024;2023-01-05T05:04:02;11.60;99.90
30889;DHT22;51092;50.874;7.024;2023-01-05T05:05:05;11.60;99.90
30889;DHT22;51092;50.874;7.024;2023-01-05T05:06:06;11.60;99.90
30889;DHT22;51092;50.874;7.024;2023-01-05T05:07:12;11.60;99.90
30889;DHT22;51092;50.874;7.024;2023-01-05T05:08:14;11.60;99.90
30889;DHT22;51092;50.874;7.024;2023-01-05T05:09:16;11.60;99.90
30889;DHT22;51092;50.874;7.024;2023-01-05T05:10:18;11.50;99.90
30889;DHT22;51092;50.874;7.024;2023-01-05T05:11:20;11.50;99.90
30889;DHT22;51092;50.874;7.024;2023-01-05T05:12:22;11.50;99.90
30889;DHT22;51092;50.874;7.024;2023-01-05T05:13:24;11.60;99.90
30889;DHT22;51092;50.874;7.024;2023-01-05T05:14:26;11.60;99.90
30889;DHT22;51092;50.874;7.024;2023-01-05T05:15:28;11.50;99.90
30889;DHT22;51092;50.874;7.024;2023-01-05T05:16:30;11.50;99.90
30889;DHT22;51092;50.874;7.024;2023-01-05T05:17:32;11.50;99.90
30889;DHT22;51092;50.874;7.024;2023-01-05T05:18:34;11.50;99.90
30889;DHT22;51092;50.874;7.024;2023-01-05T05:19:36;11.50;99.90
30889;DHT22;51092;50.874;7.024;2023-01-05T05:20:41;11.50;99.90
30889;DHT22;51092;50.874;7.024;2023-01-05T05:21:44;11.60;99.90
30889;DHT22;51092;50.874;7.024;2023-01-05T05:22:46;11.60;99.90
30889;DHT22;51092;50.874;7.024;2023-01-05T05:23:49;11.60;99.90
30889;DHT22;51092;50.874;7.024;2023-01-05T05:24:50;11.60;99.90
30889;DHT22;51092;50.874;7.024;2023-01-05T05:25:53;11.50;99.90
30889;DHT22;51092;50.874;7.024;2023-01-05T05:26:54;11.50;99.90
30889;DHT22;51092;50.874;7.024;2023-01-05T05:27:57;11.60;99.90
30889;DHT22;51092;50.874;7.024;2023-01-05T05:28:59;11.60;99.90
30889;DHT22;51092;50.874;7.024;2023-01-05T05:30:01;11.60;99.90
30889;DHT22;51092;50.874;7.024;2023-01-05T05:31:03;11.60;99.90
30889;DHT22;51092;50.874;7.024;2023-01-05T05:32:06;11.60;99.90
30889;DHT22;51092;50.874;7.024;2023-01-05T05:33:07;11.50;99.90
30889;DHT22;51092;50.874;7.024;2023-01-05T05:34:10;11.60;99.90
30889;DHT22;51092;50.874;7.024;2023-01-05T05:35:11;11.60;99.90
30889;DHT22;51092;50.874;7.024;2023-01-05T05:36:14;11.60;99.90
30889;DHT22;51092;50.874;7.024;2023-01-05T05:37:15;11.60;99.90
30889;DHT22;51092;50.874;7.024;2023-01-05T05:38:19;11.60;99.90
30889;DHT22;51092;50.874;7.024;2023-01-05T05:39:21;11.60;99.90
30889;DHT22;51092;50.874;7.024;2023-01-05T05:40:23;11.60;99.90
30889;DHT22;51092;50.874;7.024;2023-01-05T05:41:26;11.70;99.90
30889;DHT22;51092;50.874;7.024;2023-01-05T05:42:29;11.60;99.90
30889;DHT22;51092;50.874;7.024;2023-01-05T05:43:30;11.60;99.90
30889;DHT22;51092;50.874;7.024;2023-01-05T05:44:33;11.60;99.90
30889;DHT22;51092;50.874;7.024;2023-01-05T05:45:34;11.50;99.90
30889;DHT22;51092;50.874;7.024;2023-01-05T05:46:36;11.50;99.90
30889;DHT22;51092;50.874;7.024;2023-01-05T05:47:38;11.50;99.90
30889;DHT22;51092;50.874;7.024;2023-01-05T05:48:40;11.50;99.90
30889;DHT22;51092;50.874;7.024;2023-01-05T05:49:42;11.60;99.90
30889;DHT22;51092;50.874;7.024;2023-01-05T05:50:45;11.60;99.90
30889;DHT22;51092;50.874;7.024;2023-01-05T05:51:46;11.60;99.90
30889;DHT22;51092;50.874;7.024;2023-01-05T05:52:49;11.60;99.90
30889;DHT22;51092;50.874;7.024;2023-01-05T05:53:52;11.60;99.90
30889;DHT22;51092;50.874;7.024;2023-01-05T05:54:56;11.60;99.90
30889;DHT22;51092;50.874;7.024;2023-01-05T05:55:57;11.60;99.90
30889;DHT22;51092;50.874;7.024;2023-01-05T05:57:00;11.50;99.90
30889;DHT22;51092;50.874;7.024;2023-01-05T05:58:02;11.50;99.90
30889;DHT22;51092;50.874;7.024;2023-01-05T05:59:04;11.50;99.90
30889;DHT22;51092;50.874;7.024;2023-01-05T06:00:07;11.50;99.90
30889;DHT22;51092;50.874;7.024;2023-01-05T06:01:09;11.50;99.90
30889;DHT22;51092;50.874;7.024;2023-01-05T06:02:11;11.60;99.90
30889;DHT22;51092;50.874;7.024;2023-01-05T06:03:14;11.60;99.90
30889;DHT22;51092;50.874;7.024;2023-01-05T06:04:15;11.50;99.90
30889;DHT22;51092;50.874;7.024;2023-01-05T06:05:18;11.50;99.90
30889;DHT22;51092;50.874;7.024;2023-01-05T06:06:20;11.50;99.90
30889;DHT22;51092;50.874;7.024;2023-01-05T06:07:22;11.60;99.90
30889;DHT22;51092;50.874;7.024;2023-01-05T06:08:23;11.60;99.90
30889;DHT22;51092;50.874;7.024;2023-01-05T06:09:28;11.50;99.90
30889;DHT22;51092;50.874;7.024;2023-01-05T06:10:29;11.50;99.90
30889;DHT22;51092;50.874;7.024;2023-01-05T06:11:30;11.50;99.90
30889;DHT22;51092;50.874;7.024;2023-01-05T06:12:32;11.50;99.90
30889;DHT22;51092;50.874;7.024;2023-01-05T06:13:34;11.50;99.90
30889;DHT22;51092;50.874;7.024;2023-01-05T06:14:36;11.50;99.90
30889;DHT22;51092;50.874;7.024;2023-01-05T06:15:38;11.60;99.90
30889;DHT22;51092;50.874;7.024;2023-01-05T06:16:40;11.60;99.90
30889;DHT22;51092;50.874;7.024;2023-01-05T06:17:44;11.50;99.90
30889;DHT22;51092;50.874;7.024;2023-01-05T06:18:46;11.50;99.90
30889;DHT22;51092;50.874;7.024;2023-01-05T06:19:48;11.60;99.90
30889;DHT22;51092;50.874;7.024;2023-01-05T06:20:50;11.50;99.90
30889;DHT22;51092;50.874;7.024;2023-01-05T06:21:53;11.50;99.90
30889;DHT22;51092;50.874;7.024;2023-01-05T06:22:54;11.50;99.90
30889;DHT22;51092;50.874;7.024;2023-01-05T06:23:57;11.50;99.90
30889;DHT22;51092;50.874;7.024;2023-01-05T06:25:01;11.50;99.90
30889;DHT22;51092;50.874;7.024;2023-01-05T06:26:02;11.50;99.90
30889;DHT22;51092;50.874;7.024;2023-01-05T06:27:07;11.50;99.90
30889;DHT22;51092;50.874;7.024;2023-01-05T06:28:09;11.50;99.90
30889;DHT22;51092;50.874;7.024;2023-01-05T06:29:11;11.50;99.90
30889;DHT22;51092;50.874;7.024;2023-01-05T06:30:13;11.50;99.90
30889;DHT22;51092;50.874;7.024;2023-01-05T06:31:16;11.50;99.90
30889;DHT22;51092;50.874;7.024;2023-01-05T06:32:16;11.50;99.90
30889;DHT22;51092;50.874;7.024;2023-01-05T06:33:18;11.50;99.90
30889;DHT22;51092;50.874;7.024;2023-01-05T06:34:20;11.50;99.90
30889;DHT22;51092;50.874;7.024;2023-01-05T06:35:21;11.50;99.90
30889;DHT22;51092;50.874;7.024;2023-01-05T06:36:24;11.50;99.90
30889;DHT22;51092;50.874;7.024;2023-01-05T06:37:25;11.50;99.90
30889;DHT22;51092;50.874;7.024;2023-01-05T06:38:28;11.50;99.90
30889;DHT22;51092;50.874;7.024;2023-01-05T06:39:30;11.50;99.90
30889;DHT22;51092;50.874;7.024;2023-01-05T06:40:35;11.50;99.90
30889;DHT22;51092;50.874;7.024;2023-01-05T06:41:37;11.50;99.90
30889;DHT22;51092;50.874;7.024;2023-01-05T06:42:39;11.50;99.90
30889;DHT22;51092;50.874;7.024;2023-01-05T06:43:42;11.50;99.90
30889;DHT22;51092;50.874;7.024;2023-01-05T06:44:43;11.50;99.90
30889;DHT22;51092;50.874;7.024;2023-01-05T06:45:46;11.50;99.90
30889;DHT22;51092;50.874;7.024;2023-01-05T06:46:51;11.50;99.90
30889;DHT22;51092;50.874;7.024;2023-01-05T06:47:53;11.50;99.90
30889;DHT22;51092;50.874;7.024;2023-01-05T06:48:55;11.50;99.90
30889;DHT22;51092;50.874;7.024;2023-01-05T06:49:56;11.40;99.90
30889;DHT22;51092;50.874;7.024;2023-01-05T06:50:58;11.40;99.90
30889;DHT22;51092;50.874;7.024;2023-01-05T06:51:59;11.40;99.90
30889;DHT22;51092;50.874;7.024;2023-01-05T06:53:01;11.40;99.90